createdAt,value
2023-02-15T00:01:08.572Z,41.22
2023-02-15T00:03:37.418Z,41.42
2023-02-15T00:06:07.633Z,41.33
2023-02-15T00:08:36.473Z,41.40
2023-02-15T00:11:08.798Z,41.40
2023-02-15T00:13:39.798Z,41.30
2023-02-15T00:16:10.071Z,41.28
2023-02-15T00:18:39.173Z,41.24
2023-02-15T00:21:10.545Z,41.35
2023-02-15T00:23:39.167Z,41.34
2023-02-15T00:26:08.834Z,41.26
2023-02-15T00:28:37.398Z,41.03
2023-02-15T00:31:07.815Z,41.46
2023-02-15T00:33:36.508Z,41.12
2023-02-15T00:36:05.478Z,41.24
2023-02-15T00:38:35.837Z,41.28
2023-02-15T00:41:05.991Z,41.28
2023-02-15T00:43:35.142Z,41.16
2023-02-15T00:46:04.486Z,41.29
2023-02-15T00:48:33.853Z,41.20
2023-02-15T00:51:03.278Z,41.45
2023-02-15T00:53:32.091Z,41.08
2023-02-15T00:56:02.412Z,41.22
2023-02-15T00:58:31.681Z,41.18
2023-02-15T01:01:06.306Z,40.95
2023-02-15T01:03:35.710Z,41.26
2023-02-15T01:06:05.204Z,41.23
2023-02-15T01:08:34.085Z,41.25
2023-02-15T01:11:07.174Z,41.20
2023-02-15T01:13:36.310Z,41.14
2023-02-15T01:16:05.856Z,41.28
2023-02-15T01:18:36.427Z,41.20
2023-02-15T01:21:14.982Z,41.01
2023-02-15T01:23:44.100Z,41.06
2023-02-15T01:26:15.775Z,41.10
2023-02-15T01:28:44.552Z,40.79
2023-02-15T01:31:14.536Z,40.97
2023-02-15T01:33:43.845Z,41.11
2023-02-15T01:36:12.518Z,41.13
2023-02-15T01:38:42.719Z,40.90
2023-02-15T01:41:25.147Z,40.99
2023-02-15T01:43:56.529Z,40.77
2023-02-15T01:46:30.071Z,40.88
2023-02-15T01:49:03.447Z,40.97
2023-02-15T01:51:33.399Z,41.08
2023-02-15T01:54:05.044Z,41.09
2023-02-15T01:56:36.508Z,40.80
2023-02-15T01:59:10.106Z,41.06
2023-02-15T02:01:39.206Z,41.02
2023-02-15T02:04:11.988Z,40.73
2023-02-15T02:06:40.974Z,40.96
2023-02-15T02:09:09.686Z,41.00
2023-02-15T02:11:38.535Z,40.97
2023-02-15T02:14:09.290Z,40.72
2023-02-15T02:16:43.768Z,40.98
2023-02-15T02:19:46.781Z,40.93
2023-02-15T02:23:07.072Z,40.90
2023-02-15T02:26:27.112Z,40.68
2023-02-15T02:29:25.780Z,40.87
2023-02-15T02:32:40.849Z,40.79
2023-02-15T02:35:13.940Z,40.81
2023-02-15T02:37:51.151Z,40.71
2023-02-15T02:40:22.617Z,40.95
2023-02-15T02:42:58.564Z,40.82
2023-02-15T02:45:28.569Z,40.80
2023-02-15T02:47:59.033Z,40.78
2023-02-15T02:50:31.186Z,40.58
2023-02-15T02:53:00.913Z,40.61
2023-02-15T02:55:32.193Z,40.52
2023-02-15T02:58:03.402Z,40.64
2023-02-15T03:00:34.142Z,40.69
2023-02-15T03:03:06.686Z,40.62
2023-02-15T03:05:40.161Z,40.72
2023-02-15T03:08:10.782Z,40.49
2023-02-15T03:10:40.484Z,40.45
2023-02-15T03:13:09.223Z,40.59
2023-02-15T03:15:58.457Z,40.67
2023-02-15T03:18:30.590Z,40.53
2023-02-15T03:21:02.263Z,40.44
2023-02-15T03:23:31.006Z,40.65
2023-02-15T03:26:01.840Z,40.78
2023-02-15T03:28:33.753Z,40.56
2023-02-15T03:31:05.000Z,40.44
2023-02-15T03:33:33.931Z,40.28
2023-02-15T03:36:06.533Z,40.60
2023-02-15T03:38:38.731Z,40.61
2023-02-15T03:41:13.253Z,40.41
2023-02-15T03:43:47.777Z,40.35
2023-02-15T03:46:20.390Z,40.39
2023-02-15T03:48:51.993Z,40.45
2023-02-15T03:51:39.270Z,40.56
2023-02-15T03:54:11.011Z,40.16
2023-02-15T03:56:42.112Z,40.29
2023-02-15T03:59:36.928Z,40.34
2023-02-15T04:02:12.886Z,40.43
2023-02-15T04:04:44.392Z,40.17
2023-02-15T04:07:14.861Z,40.39
2023-02-15T04:10:01.000Z,40.22
2023-02-15T04:12:29.645Z,40.37
2023-02-15T04:15:15.674Z,40.40
2023-02-15T04:17:44.340Z,40.24
2023-02-15T04:20:31.777Z,40.42
2023-02-15T04:23:19.407Z,40.17
2023-02-15T04:25:48.111Z,40.19
2023-02-15T04:28:17.061Z,40.19
2023-02-15T04:30:45.788Z,40.40
2023-02-15T04:33:14.575Z,40.16
2023-02-15T04:35:44.242Z,39.96
2023-02-15T04:38:14.136Z,40.37
2023-02-15T04:40:43.306Z,40.17
2023-02-15T04:43:12.052Z,40.22
2023-02-15T04:45:40.622Z,40.19
2023-02-15T04:48:09.446Z,40.31
2023-02-15T04:50:37.954Z,40.23
2023-02-15T04:53:06.899Z,40.16
2023-02-15T04:55:37.178Z,40.03
2023-02-15T04:58:05.902Z,40.12
2023-02-15T05:00:34.570Z,40.15
2023-02-15T05:03:03.364Z,40.22
2023-02-15T05:05:32.106Z,39.98
2023-02-15T05:08:00.649Z,40.19
2023-02-15T05:10:29.738Z,40.03
2023-02-15T05:12:59.770Z,40.06
2023-02-15T05:15:28.553Z,40.32
2023-02-15T05:17:57.473Z,40.07
2023-02-15T05:20:26.083Z,39.99
2023-02-15T05:22:56.131Z,40.09
2023-02-15T05:25:42.732Z,40.00
2023-02-15T05:28:22.271Z,39.99
2023-02-15T05:30:51.984Z,40.12
2023-02-15T05:33:20.948Z,39.94
2023-02-15T05:35:49.745Z,39.99
2023-02-15T05:38:18.777Z,39.93
2023-02-15T05:40:50.089Z,39.85
2023-02-15T05:43:20.559Z,39.92
2023-02-15T05:45:49.352Z,39.98
2023-02-15T05:48:18.328Z,39.90
2023-02-15T05:50:47.152Z,40.02
2023-02-15T05:53:15.871Z,39.93
2023-02-15T05:55:44.469Z,39.74
2023-02-15T05:58:13.526Z,39.72
2023-02-15T06:00:43.460Z,39.98
2023-02-15T06:03:12.226Z,39.74
2023-02-15T06:05:41.046Z,39.85
2023-02-15T06:08:09.696Z,39.85
2023-02-15T06:10:38.327Z,39.97
2023-02-15T06:13:07.018Z,40.06
2023-02-15T06:15:35.700Z,40.12
2023-02-15T06:18:05.830Z,39.84
2023-02-15T06:20:34.483Z,40.25
2023-02-15T06:23:03.034Z,40.55
2023-02-15T06:25:31.638Z,40.59
2023-02-15T06:28:00.747Z,40.78
2023-02-15T06:30:29.366Z,40.90
2023-02-15T06:32:57.965Z,40.95
2023-02-15T06:35:28.055Z,40.80
2023-02-15T06:37:56.726Z,41.16
2023-02-15T06:40:25.326Z,41.20
2023-02-15T06:42:57.622Z,40.83
2023-02-15T06:45:26.216Z,41.62
2023-02-15T06:47:55.225Z,40.91
2023-02-15T06:50:23.816Z,42.05
2023-02-15T06:52:58.150Z,42.32
2023-02-15T06:55:30.020Z,41.64
2023-02-15T06:57:58.590Z,41.73
2023-02-15T07:00:28.155Z,42.23
2023-02-15T07:02:58.769Z,42.78
2023-02-15T07:05:31.829Z,43.04
2023-02-15T07:08:02.101Z,42.16
2023-02-15T07:10:30.862Z,42.75
2023-02-15T07:12:58.563Z,43.27
2023-02-15T07:15:27.161Z,42.57
2023-02-15T07:17:56.436Z,43.07
2023-02-15T07:20:25.696Z,41.68
2023-02-15T07:22:54.283Z,41.71
2023-02-15T07:25:24.376Z,42.12
2023-02-15T07:27:58.578Z,41.89
2023-02-15T07:30:30.102Z,42.22
2023-02-15T07:33:16.347Z,42.22
2023-02-15T07:35:49.962Z,42.31
2023-02-15T07:38:18.637Z,41.97
2023-02-15T07:40:48.953Z,42.00
2023-02-15T07:43:17.674Z,41.71
2023-02-15T07:45:46.330Z,41.36
2023-02-15T07:48:15.474Z,41.82
2023-02-15T07:50:45.968Z,41.65
2023-02-15T07:53:14.591Z,41.51
2023-02-15T07:55:45.083Z,42.64
2023-02-15T07:58:15.103Z,42.42
2023-02-15T08:03:39.283Z,42.69
2023-02-15T08:06:08.775Z,43.03
2023-02-15T08:08:38.507Z,43.55
2023-02-15T08:11:26.035Z,42.70
2023-02-15T08:13:55.788Z,43.64
2023-02-15T08:16:30.528Z,43.30
2023-02-15T08:19:02.166Z,42.60
2023-02-15T08:21:31.392Z,42.64
2023-02-15T08:24:00.224Z,41.92
2023-02-15T08:26:29.265Z,42.39
2023-02-15T08:28:57.938Z,42.61
2023-02-15T08:31:27.978Z,42.62
2023-02-15T08:33:57.909Z,42.46
2023-02-15T08:36:29.752Z,41.46
2023-02-15T08:38:59.824Z,41.50
2023-02-15T08:41:30.391Z,41.73
2023-02-15T08:44:00.292Z,41.72
2023-02-15T08:46:30.326Z,41.86
2023-02-15T08:48:59.471Z,41.75
2023-02-15T08:51:30.863Z,41.64
2023-02-15T08:54:01.596Z,41.55
2023-02-15T08:56:34.293Z,41.28
2023-02-15T08:59:03.254Z,41.32
2023-02-15T09:01:34.761Z,41.44
2023-02-15T09:04:05.203Z,41.65
2023-02-15T09:06:35.271Z,41.71
2023-02-15T09:09:04.736Z,41.78
2023-02-15T09:11:38.211Z,41.37
2023-02-15T09:14:10.075Z,41.62
2023-02-15T09:16:39.810Z,41.63
2023-02-15T09:19:08.965Z,42.19
2023-02-15T09:21:40.039Z,42.15
2023-02-15T09:24:10.138Z,41.70
2023-02-15T09:26:41.454Z,41.67
2023-02-15T09:29:10.553Z,41.79
2023-02-15T09:31:42.367Z,41.55
2023-02-15T09:34:11.165Z,41.43
2023-02-15T09:36:41.636Z,41.54
2023-02-15T09:39:11.651Z,41.39
2023-02-15T09:42:16.855Z,41.66
2023-02-15T09:45:06.633Z,41.61
2023-02-15T09:48:14.612Z,41.46
2023-02-15T09:50:50.010Z,41.55
2023-02-15T09:53:35.594Z,41.36
2023-02-15T09:56:09.184Z,41.36
2023-02-15T09:58:45.723Z,41.46
2023-02-15T10:01:20.776Z,41.15
2023-02-15T10:04:01.252Z,41.41
2023-02-15T10:06:42.810Z,41.47
2023-02-15T10:09:48.700Z,41.11
2023-02-15T10:12:51.971Z,40.89
2023-02-15T10:15:36.541Z,41.25
2023-02-15T10:18:19.482Z,41.28
2023-02-15T10:20:55.294Z,41.32
2023-02-15T10:23:37.095Z,41.30
2023-02-15T10:26:15.128Z,41.29
2023-02-15T10:28:49.015Z,41.07
2023-02-15T10:31:25.963Z,41.09
2023-02-15T10:34:16.631Z,41.27
2023-02-15T10:37:05.504Z,40.94
2023-02-15T10:39:41.740Z,41.09
2023-02-15T10:42:16.820Z,41.09
2023-02-15T10:44:57.412Z,41.23
2023-02-15T10:47:40.861Z,41.10
2023-02-15T10:50:36.062Z,41.08
2023-02-15T10:53:25.713Z,41.01
2023-02-15T10:56:00.794Z,41.05
2023-02-15T10:58:42.442Z,40.74
2023-02-15T11:01:21.000Z,40.90
2023-02-15T11:04:12.557Z,40.85
2023-02-15T11:06:43.653Z,40.88
2023-02-15T11:09:16.621Z,41.05
2023-02-15T11:11:45.848Z,40.80
2023-02-15T11:14:17.822Z,41.04
2023-02-15T11:16:48.519Z,40.91
2023-02-15T11:19:20.414Z,40.64
2023-02-15T11:21:51.349Z,40.94
2023-02-15T11:24:21.819Z,40.97
2023-02-15T11:26:53.856Z,40.85
2023-02-15T11:29:27.465Z,40.82
2023-02-15T11:31:57.687Z,40.80
2023-02-15T11:34:31.838Z,40.91
2023-02-15T11:37:02.629Z,40.72
2023-02-15T11:39:32.839Z,40.80
2023-02-15T11:42:04.533Z,40.67
2023-02-15T11:44:37.124Z,41.06
2023-02-15T11:47:09.824Z,40.91
2023-02-15T11:49:38.719Z,40.72
2023-02-15T11:52:09.223Z,40.98
2023-02-15T11:54:39.999Z,40.77
2023-02-15T11:57:16.109Z,40.87
2023-02-15T11:59:48.453Z,40.91
2023-02-15T12:02:19.990Z,40.95
2023-02-15T12:04:52.227Z,40.83
2023-02-15T12:07:26.674Z,40.80
2023-02-15T12:10:00.772Z,40.83
2023-02-15T12:12:30.842Z,40.78
2023-02-15T12:15:01.942Z,40.87
2023-02-15T12:17:32.633Z,40.65
2023-02-15T12:20:03.493Z,40.80
2023-02-15T12:22:33.957Z,40.60
2023-02-15T12:25:03.911Z,40.63
2023-02-15T12:27:32.995Z,40.81
2023-02-15T12:30:05.443Z,40.71
2023-02-15T12:32:38.367Z,40.72
2023-02-15T12:35:12.092Z,40.32
2023-02-15T12:37:42.505Z,40.80
2023-02-15T12:40:23.258Z,40.66
2023-02-15T12:42:52.073Z,40.49
2023-02-15T12:45:27.892Z,40.57
2023-02-15T12:48:18.069Z,40.38
2023-02-15T12:50:54.353Z,40.59
2023-02-15T12:53:25.661Z,41.05
2023-02-15T12:55:56.526Z,40.92
2023-02-15T12:58:26.414Z,41.08
2023-02-15T13:01:13.616Z,41.26
2023-02-15T13:03:59.244Z,41.09
2023-02-15T13:06:28.782Z,40.92
2023-02-15T13:09:00.212Z,41.15
2023-02-15T13:11:35.290Z,41.22
2023-02-15T13:14:05.357Z,41.13
2023-02-15T13:16:37.054Z,42.01
2023-02-15T13:19:08.565Z,41.31
2023-02-15T13:21:39.468Z,41.28
2023-02-15T13:24:10.194Z,41.42
2023-02-15T13:26:38.860Z,41.34
2023-02-15T13:29:10.789Z,41.33
2023-02-15T13:31:41.081Z,40.99
2023-02-15T13:34:14.214Z,41.30
2023-02-15T13:36:48.375Z,41.56
2023-02-15T13:39:24.580Z,41.10
2023-02-15T13:41:59.173Z,41.42
2023-02-15T13:45:06.910Z,41.20
2023-02-15T13:47:42.114Z,41.34
2023-02-15T13:50:31.315Z,41.24
2023-02-15T13:53:23.331Z,41.26
2023-02-15T13:55:53.375Z,41.10
2023-02-15T13:59:06.982Z,41.12
2023-02-15T14:01:41.734Z,41.14
2023-02-15T14:05:08.442Z,41.25
2023-02-15T14:07:52.484Z,41.15
2023-02-15T14:10:56.777Z,40.99
2023-02-15T14:13:56.440Z,40.92
2023-02-15T14:16:34.674Z,40.95
2023-02-15T14:19:11.455Z,40.93
2023-02-15T14:21:45.015Z,40.89
2023-02-15T14:24:25.345Z,41.09
2023-02-15T14:26:58.505Z,40.94
2023-02-15T14:29:37.159Z,40.90
2023-02-15T14:32:11.069Z,41.00
2023-02-15T14:34:45.786Z,40.94
2023-02-15T14:37:16.485Z,40.92
2023-02-15T14:40:04.844Z,40.76
2023-02-15T14:42:37.305Z,40.89
2023-02-15T14:45:08.530Z,40.73
2023-02-15T14:47:39.490Z,40.79
2023-02-15T14:50:46.340Z,40.81
2023-02-15T14:53:38.745Z,40.83
2023-02-15T14:56:33.412Z,38.89
2023-02-15T14:59:19.248Z,40.31
2023-02-15T15:01:58.643Z,40.53
2023-02-15T15:04:33.884Z,40.42
2023-02-15T15:07:11.905Z,40.31
2023-02-15T15:09:43.010Z,40.63
2023-02-15T15:12:40.178Z,40.48
2023-02-15T15:15:15.447Z,40.68
2023-02-15T15:18:05.236Z,40.72
2023-02-15T15:20:50.958Z,40.59
2023-02-15T15:23:45.224Z,40.48
2023-02-15T15:26:29.984Z,40.53
2023-02-15T15:29:08.493Z,40.45
2023-02-15T15:31:47.021Z,40.27
2023-02-15T15:35:01.990Z,40.30
2023-02-15T15:38:07.465Z,40.69
2023-02-15T15:41:19.036Z,40.74
2023-02-15T15:45:00.359Z,40.58
2023-02-15T15:48:05.184Z,40.52
2023-02-15T15:50:35.528Z,40.48
2023-02-15T15:53:04.730Z,40.58
2023-02-15T15:55:34.340Z,40.72
2023-02-15T15:58:05.716Z,40.72
2023-02-15T16:00:42.191Z,40.54
2023-02-15T16:03:17.193Z,40.60
2023-02-15T16:05:46.266Z,40.59
2023-02-15T16:08:16.650Z,40.41
2023-02-15T16:10:45.351Z,40.27
2023-02-15T16:13:15.086Z,40.30
2023-02-15T16:15:50.817Z,40.37
2023-02-15T16:18:20.228Z,40.38
2023-02-15T16:20:55.353Z,40.37
2023-02-15T16:23:44.760Z,40.30
2023-02-15T16:26:15.974Z,40.61
2023-02-15T16:28:51.178Z,40.48
2023-02-15T16:31:23.369Z,40.56
2023-02-15T16:33:55.384Z,40.30
2023-02-15T16:36:25.535Z,40.54
2023-02-15T16:39:19.277Z,40.47
2023-02-15T16:41:48.643Z,40.91
2023-02-15T16:44:20.630Z,40.65
2023-02-15T16:47:40.281Z,40.41
2023-02-15T16:50:22.640Z,40.62
2023-02-15T16:52:52.691Z,40.68
2023-02-15T16:55:26.418Z,40.84
2023-02-15T16:57:57.106Z,40.64
2023-02-15T17:00:29.971Z,40.94
2023-02-15T17:03:02.537Z,40.88
2023-02-15T17:05:37.446Z,40.87
2023-02-15T17:08:15.751Z,41.26
2023-02-15T17:10:45.941Z,41.58
2023-02-15T17:13:14.828Z,41.21
2023-02-15T17:15:44.537Z,41.45
2023-02-15T17:18:18.810Z,41.79
2023-02-15T17:20:50.742Z,41.38
2023-02-15T17:23:29.357Z,41.68
2023-02-15T17:25:58.301Z,41.96
2023-02-15T17:28:28.504Z,41.99
2023-02-15T17:30:58.294Z,41.78
2023-02-15T17:33:30.318Z,41.64
2023-02-15T17:36:10.975Z,41.58
2023-02-15T17:38:39.704Z,41.57
2023-02-15T17:41:08.597Z,41.54
2023-02-15T17:43:37.557Z,41.40
2023-02-15T17:46:06.904Z,41.22
2023-02-15T17:48:36.933Z,41.41
2023-02-15T17:51:08.820Z,41.16
2023-02-15T17:53:38.424Z,41.33
2023-02-15T17:56:10.584Z,41.36
2023-02-15T17:58:39.427Z,41.24
2023-02-15T18:01:30.237Z,41.22
2023-02-15T18:04:16.341Z,40.99
2023-02-15T18:07:04.080Z,41.17
2023-02-15T18:09:49.894Z,41.08
2023-02-15T18:12:22.644Z,41.01
2023-02-15T18:14:51.316Z,41.06
2023-02-15T18:17:20.126Z,41.05
2023-02-15T18:19:48.996Z,41.11
2023-02-15T18:22:20.119Z,40.82
2023-02-15T18:24:49.536Z,41.04
2023-02-15T18:27:18.554Z,40.77
2023-02-15T18:29:48.779Z,40.80
2023-02-15T18:32:19.175Z,40.59
2023-02-15T18:34:48.171Z,40.84
2023-02-15T18:37:21.633Z,40.83
2023-02-15T18:39:51.609Z,40.88
2023-02-15T18:42:25.114Z,40.80
2023-02-15T18:44:56.077Z,41.10
2023-02-15T18:47:25.064Z,41.37
2023-02-15T18:49:53.727Z,41.01
2023-02-15T18:52:25.482Z,40.81
2023-02-15T18:55:01.583Z,40.87
2023-02-15T18:57:30.627Z,41.01
2023-02-15T18:59:59.456Z,40.98
2023-02-15T19:02:28.365Z,41.11
2023-02-15T19:04:57.151Z,41.16
2023-02-15T19:07:29.954Z,41.06
2023-02-15T19:10:00.193Z,41.32
2023-02-15T19:12:29.264Z,41.52
2023-02-15T19:14:57.965Z,41.70
2023-02-15T19:17:27.147Z,41.60
2023-02-15T19:19:55.959Z,42.66
2023-02-15T19:22:29.240Z,41.95
2023-02-15T19:25:00.352Z,42.23
2023-02-15T19:27:31.443Z,42.15
2023-02-15T19:30:01.008Z,42.22
2023-02-15T19:32:30.832Z,42.41
2023-02-15T19:34:59.619Z,42.26
2023-02-15T19:37:35.164Z,42.34
2023-02-15T19:40:04.112Z,42.75
2023-02-15T19:42:34.726Z,42.22
2023-02-15T19:45:03.657Z,42.26
2023-02-15T19:47:32.385Z,42.06
2023-02-15T19:50:03.712Z,41.44
2023-02-15T19:52:33.848Z,42.31
2023-02-15T19:55:03.122Z,42.20
2023-02-15T19:57:31.933Z,42.17
2023-02-15T20:00:12.435Z,41.94
2023-02-15T20:02:50.682Z,41.91
2023-02-15T20:05:19.414Z,42.41
2023-02-15T20:07:51.177Z,42.32
2023-02-15T20:10:21.409Z,42.17
2023-02-15T20:12:50.118Z,42.19
2023-02-15T20:15:22.068Z,41.93
2023-02-15T20:17:50.966Z,41.91
2023-02-15T20:20:19.941Z,41.90
2023-02-15T20:22:52.054Z,41.85
2023-02-15T20:25:25.346Z,41.98
2023-02-15T20:27:54.302Z,41.94
2023-02-15T20:30:25.224Z,41.90
2023-02-15T20:32:54.118Z,42.09
2023-02-15T20:35:24.305Z,41.70
2023-02-15T20:37:56.072Z,41.61
2023-02-15T20:40:26.448Z,41.75
2023-02-15T20:42:55.209Z,41.50
2023-02-15T20:45:25.111Z,41.73
2023-02-15T20:47:53.952Z,41.55
2023-02-15T20:50:24.296Z,41.65
2023-02-15T20:52:55.829Z,41.71
2023-02-15T20:55:27.244Z,41.38
2023-02-15T20:57:56.053Z,41.46
2023-02-15T21:00:26.452Z,41.43
2023-02-15T21:02:57.940Z,41.20
2023-02-15T21:05:30.212Z,41.45
2023-02-15T21:08:00.667Z,41.45
2023-02-15T21:10:31.451Z,41.44
2023-02-15T21:13:01.316Z,41.58
2023-02-15T21:15:32.703Z,41.58
2023-02-15T21:18:03.145Z,41.45
2023-02-15T21:20:33.532Z,41.34
2023-02-15T21:23:05.477Z,41.47
2023-02-15T21:25:35.945Z,41.67
2023-02-15T21:28:04.952Z,41.55
2023-02-15T21:30:33.701Z,41.59
2023-02-15T21:33:02.808Z,41.79
2023-02-15T21:35:32.341Z,41.74
2023-02-15T21:38:02.436Z,41.46
2023-02-15T21:40:32.494Z,41.60
2023-02-15T21:43:18.584Z,41.37
2023-02-15T21:46:04.816Z,41.50
2023-02-15T21:48:33.706Z,41.39
2023-02-15T21:51:19.693Z,41.37
2023-02-15T21:53:49.802Z,41.41
2023-02-15T21:56:20.004Z,41.32
2023-02-15T21:58:48.852Z,41.43
2023-02-15T22:01:22.883Z,41.48
2023-02-15T22:03:52.049Z,41.60
2023-02-15T22:06:21.146Z,41.32
2023-02-15T22:08:51.550Z,41.45
2023-02-15T22:11:23.279Z,41.38
2023-02-15T22:13:52.113Z,41.34
2023-02-15T22:16:22.717Z,41.64
2023-02-15T22:18:51.512Z,41.97
2023-02-15T22:21:21.387Z,42.06
2023-02-15T22:23:51.409Z,42.14
2023-02-15T22:26:23.922Z,42.88
2023-02-15T22:28:52.679Z,43.15
2023-02-15T22:31:22.594Z,42.94
2023-02-15T22:33:51.531Z,43.28
2023-02-15T22:36:25.031Z,43.04
2023-02-15T22:38:55.379Z,43.18
2023-02-15T22:41:24.929Z,42.94
2023-02-15T22:43:53.528Z,42.87
2023-02-15T22:46:24.789Z,42.92
2023-02-15T22:48:53.691Z,42.91
2023-02-15T22:51:25.840Z,42.52
2023-02-15T22:53:56.229Z,42.59
2023-02-15T22:56:27.916Z,41.75
2023-02-15T22:58:58.920Z,40.11
2023-02-15T23:01:31.114Z,39.84
2023-02-15T23:04:03.196Z,38.79
2023-02-15T23:06:32.800Z,38.52
2023-02-15T23:09:02.848Z,40.69
2023-02-15T23:11:31.696Z,41.65
2023-02-15T23:14:03.111Z,41.61
2023-02-15T23:16:32.021Z,41.53
2023-02-15T23:19:00.806Z,41.86
2023-02-15T23:21:31.714Z,41.72
2023-02-15T23:24:16.843Z,41.43
2023-02-15T23:26:45.545Z,41.46
2023-02-15T23:29:19.909Z,41.67
2023-02-15T23:31:50.783Z,41.47
2023-02-15T23:34:22.328Z,41.36
2023-02-15T23:36:50.872Z,41.52
2023-02-15T23:39:40.086Z,41.29
2023-02-15T23:42:12.101Z,41.54
2023-02-15T23:44:41.340Z,41.30
2023-02-15T23:47:18.695Z,41.29
2023-02-15T23:49:47.582Z,41.36
2023-02-15T23:52:16.619Z,41.48
2023-02-15T23:54:46.919Z,41.34
2023-02-15T23:57:15.793Z,41.34
2023-02-15T23:59:44.736Z,41.15
